sensor_id;sensor_type;location;lat;lon;timestamp;P1;durP1;ratioP1;P2;durP2;ratioP2
13605;SDS011;6874;52.084;5.090;2022-08-19T00:00:24;205.53;;;199.00;;
13605;SDS011;6874;52.084;5.090;2022-08-19T00:02:50;211.07;;;204.37;;
13605;SDS011;6874;52.084;5.090;2022-08-19T00:05:15;200.40;;;194.00;;
13605;SDS011;6874;52.084;5.090;2022-08-19T00:07:43;202.50;;;196.07;;
13605;SDS011;6874;52.084;5.090;2022-08-19T00:10:09;192.73;;;186.57;;
13605;SDS011;6874;52.084;5.090;2022-08-19T00:12:37;198.00;;;191.70;;
13605;SDS011;6874;52.084;5.090;2022-08-19T00:15:04;200.90;;;194.53;;
13605;SDS011;6874;52.084;5.090;2022-08-19T00:17:31;197.33;;;191.10;;
13605;SDS011;6874;52.084;5.090;2022-08-19T00:19:57;195.80;;;189.60;;
13605;SDS011;6874;52.084;5.090;2022-08-19T00:22:22;189.63;;;183.60;;
13605;SDS011;6874;52.084;5.090;2022-08-19T00:24:48;189.07;;;183.07;;
13605;SDS011;6874;52.084;5.090;2022-08-19T00:27:13;192.47;;;186.33;;
13605;SDS011;6874;52.084;5.090;2022-08-19T00:29:39;191.30;;;185.20;;
13605;SDS011;6874;52.084;5.090;2022-08-19T00:32:05;183.03;;;177.17;;
13605;SDS011;6874;52.084;5.090;2022-08-19T00:34:31;180.43;;;174.67;;
13605;SDS011;6874;52.084;5.090;2022-08-19T00:36:57;186.37;;;180.40;;
13605;SDS011;6874;52.084;5.090;2022-08-19T00:39:23;186.17;;;180.20;;
13605;SDS011;6874;52.084;5.090;2022-08-19T00:41:49;191.33;;;185.23;;
13605;SDS011;6874;52.084;5.090;2022-08-19T00:44:17;194.93;;;188.77;;
13605;SDS011;6874;52.084;5.090;2022-08-19T00:46:45;181.13;;;175.33;;
13605;SDS011;6874;52.084;5.090;2022-08-19T00:49:14;182.70;;;176.83;;
13605;SDS011;6874;52.084;5.090;2022-08-19T00:51:45;186.87;;;180.90;;
13605;SDS011;6874;52.084;5.090;2022-08-19T00:54:14;175.17;;;169.57;;
13605;SDS011;6874;52.084;5.090;2022-08-19T00:56:41;180.87;;;175.10;;
13605;SDS011;6874;52.084;5.090;2022-08-19T00:59:07;178.80;;;173.10;;
13605;SDS011;6874;52.084;5.090;2022-08-19T01:01:35;176.83;;;171.23;;
13605;SDS011;6874;52.084;5.090;2022-08-19T01:04:02;173.20;;;167.60;;
13605;SDS011;6874;52.084;5.090;2022-08-19T01:06:27;172.97;;;167.40;;
13605;SDS011;6874;52.084;5.090;2022-08-19T01:08:57;177.03;;;171.37;;
13605;SDS011;6874;52.084;5.090;2022-08-19T01:11:23;170.20;;;164.73;;
13605;SDS011;6874;52.084;5.090;2022-08-19T01:13:48;165.27;;;159.97;;
13605;SDS011;6874;52.084;5.090;2022-08-19T01:16:16;167.30;;;161.90;;
13605;SDS011;6874;52.084;5.090;2022-08-19T01:18:44;170.57;;;165.07;;
13605;SDS011;6874;52.084;5.090;2022-08-19T01:21:12;175.70;;;170.07;;
13605;SDS011;6874;52.084;5.090;2022-08-19T01:23:57;177.77;;;172.07;;
13605;SDS011;6874;52.084;5.090;2022-08-19T01:26:24;170.67;;;165.17;;
13605;SDS011;6874;52.084;5.090;2022-08-19T01:28:53;173.90;;;168.30;;
13605;SDS011;6874;52.084;5.090;2022-08-19T01:31:22;170.73;;;165.23;;
13605;SDS011;6874;52.084;5.090;2022-08-19T01:33:51;183.87;;;177.93;;
13605;SDS011;6874;52.084;5.090;2022-08-19T01:36:27;183.63;;;177.63;;
13605;SDS011;6874;52.084;5.090;2022-08-19T01:38:59;172.83;;;167.23;;
13605;SDS011;6874;52.084;5.090;2022-08-19T01:41:26;181.37;;;175.47;;
13605;SDS011;6874;52.084;5.090;2022-08-19T01:43:52;177.23;;;171.50;;
13605;SDS011;6874;52.084;5.090;2022-08-19T01:46:18;174.63;;;168.90;;
13605;SDS011;6874;52.084;5.090;2022-08-19T01:48:45;174.67;;;169.00;;
13605;SDS011;6874;52.084;5.090;2022-08-19T01:51:11;172.80;;;167.20;;
13605;SDS011;6874;52.084;5.090;2022-08-19T01:53:38;178.17;;;172.37;;
13605;SDS011;6874;52.084;5.090;2022-08-19T01:56:04;172.30;;;166.63;;
13605;SDS011;6874;52.084;5.090;2022-08-19T01:58:32;172.47;;;166.87;;
13605;SDS011;6874;52.084;5.090;2022-08-19T02:01:05;173.50;;;167.83;;
13605;SDS011;6874;52.084;5.090;2022-08-19T02:03:31;160.30;;;154.97;;
13605;SDS011;6874;52.084;5.090;2022-08-19T02:06:00;163.03;;;157.70;;
13605;SDS011;6874;52.084;5.090;2022-08-19T02:08:28;157.47;;;152.27;;
13605;SDS011;6874;52.084;5.090;2022-08-19T02:10:55;166.20;;;160.73;;
13605;SDS011;6874;52.084;5.090;2022-08-19T02:13:23;163.17;;;157.83;;
13605;SDS011;6874;52.084;5.090;2022-08-19T02:15:49;164.00;;;158.60;;
13605;SDS011;6874;52.084;5.090;2022-08-19T02:18:15;158.97;;;153.70;;
13605;SDS011;6874;52.084;5.090;2022-08-19T02:20:42;153.87;;;148.77;;
13605;SDS011;6874;52.084;5.090;2022-08-19T02:23:09;153.03;;;147.87;;
13605;SDS011;6874;52.084;5.090;2022-08-19T02:25:36;151.30;;;146.27;;
13605;SDS011;6874;52.084;5.090;2022-08-19T02:28:02;146.60;;;141.70;;
13605;SDS011;6874;52.084;5.090;2022-08-19T02:30:28;153.47;;;148.33;;
13605;SDS011;6874;52.084;5.090;2022-08-19T02:32:54;153.97;;;148.90;;
13605;SDS011;6874;52.084;5.090;2022-08-19T02:35:20;156.93;;;151.73;;
13605;SDS011;6874;52.084;5.090;2022-08-19T02:37:46;150.63;;;145.63;;
13605;SDS011;6874;52.084;5.090;2022-08-19T02:40:30;139.37;;;134.77;;
13605;SDS011;6874;52.084;5.090;2022-08-19T02:43:01;160.00;;;154.73;;
13605;SDS011;6874;52.084;5.090;2022-08-19T02:45:32;141.80;;;137.07;;
13605;SDS011;6874;52.084;5.090;2022-08-19T02:47:59;145.67;;;140.77;;
13605;SDS011;6874;52.084;5.090;2022-08-19T02:50:24;152.20;;;147.10;;
13605;SDS011;6874;52.084;5.090;2022-08-19T02:52:50;150.63;;;145.53;;
13605;SDS011;6874;52.084;5.090;2022-08-19T02:55:16;156.90;;;151.50;;
13605;SDS011;6874;52.084;5.090;2022-08-19T02:57:41;152.47;;;147.33;;
13605;SDS011;6874;52.084;5.090;2022-08-19T03:00:07;153.60;;;148.37;;
13605;SDS011;6874;52.084;5.090;2022-08-19T03:02:37;159.37;;;153.93;;
13605;SDS011;6874;52.084;5.090;2022-08-19T03:05:03;155.43;;;150.13;;
13605;SDS011;6874;52.084;5.090;2022-08-19T03:07:29;159.90;;;154.43;;
13605;SDS011;6874;52.084;5.090;2022-08-19T03:09:55;172.97;;;167.03;;
13605;SDS011;6874;52.084;5.090;2022-08-19T03:12:21;165.77;;;160.00;;
13605;SDS011;6874;52.084;5.090;2022-08-19T03:14:46;164.83;;;159.20;;
13605;SDS011;6874;52.084;5.090;2022-08-19T03:17:12;166.93;;;161.20;;
13605;SDS011;6874;52.084;5.090;2022-08-19T03:19:38;182.17;;;175.93;;
13605;SDS011;6874;52.084;5.090;2022-08-19T03:22:04;176.97;;;170.83;;
13605;SDS011;6874;52.084;5.090;2022-08-19T03:24:30;178.30;;;172.13;;
13605;SDS011;6874;52.084;5.090;2022-08-19T03:26:56;176.87;;;170.77;;
13605;SDS011;6874;52.084;5.090;2022-08-19T03:29:23;179.37;;;173.17;;
13605;SDS011;6874;52.084;5.090;2022-08-19T03:31:53;190.63;;;184.03;;
13605;SDS011;6874;52.084;5.090;2022-08-19T03:34:24;175.80;;;169.67;;
13605;SDS011;6874;52.084;5.090;2022-08-19T03:36:51;181.87;;;175.57;;
13605;SDS011;6874;52.084;5.090;2022-08-19T03:39:19;186.13;;;179.73;;
13605;SDS011;6874;52.084;5.090;2022-08-19T03:41:45;190.13;;;183.60;;
13605;SDS011;6874;52.084;5.090;2022-08-19T03:44:12;192.87;;;186.17;;
13605;SDS011;6874;52.084;5.090;2022-08-19T03:46:38;191.97;;;185.30;;
13605;SDS011;6874;52.084;5.090;2022-08-19T03:49:04;187.90;;;181.37;;
13605;SDS011;6874;52.084;5.090;2022-08-19T03:51:34;185.50;;;179.03;;
13605;SDS011;6874;52.084;5.090;2022-08-19T03:54:02;190.43;;;183.83;;
13605;SDS011;6874;52.084;5.090;2022-08-19T03:56:30;189.00;;;182.47;;
13605;SDS011;6874;52.084;5.090;2022-08-19T03:58:58;188.83;;;182.20;;
13605;SDS011;6874;52.084;5.090;2022-08-19T04:01:25;188.97;;;182.40;;
13605;SDS011;6874;52.084;5.090;2022-08-19T04:03:52;181.93;;;175.60;;
13605;SDS011;6874;52.084;5.090;2022-08-19T04:06:23;177.07;;;170.90;;
13605;SDS011;6874;52.084;5.090;2022-08-19T04:08:54;183.67;;;177.20;;
13605;SDS011;6874;52.084;5.090;2022-08-19T04:11:22;184.53;;;178.03;;
13605;SDS011;6874;52.084;5.090;2022-08-19T04:13:50;175.63;;;169.47;;
13605;SDS011;6874;52.084;5.090;2022-08-19T04:16:17;173.43;;;167.33;;
13605;SDS011;6874;52.084;5.090;2022-08-19T04:18:45;177.60;;;171.40;;
13605;SDS011;6874;52.084;5.090;2022-08-19T04:21:16;174.87;;;168.77;;
13605;SDS011;6874;52.084;5.090;2022-08-19T04:23:43;176.87;;;170.70;;
13605;SDS011;6874;52.084;5.090;2022-08-19T04:26:20;181.47;;;175.10;;
13605;SDS011;6874;52.084;5.090;2022-08-19T04:28:48;180.87;;;174.57;;
13605;SDS011;6874;52.084;5.090;2022-08-19T04:31:15;187.10;;;180.60;;
13605;SDS011;6874;52.084;5.090;2022-08-19T04:33:46;184.10;;;177.67;;
13605;SDS011;6874;52.084;5.090;2022-08-19T04:36:19;190.17;;;183.53;;
13605;SDS011;6874;52.084;5.090;2022-08-19T04:38:50;187.27;;;180.70;;
13605;SDS011;6874;52.084;5.090;2022-08-19T04:41:18;179.23;;;172.93;;
13605;SDS011;6874;52.084;5.090;2022-08-19T04:44:02;172.20;;;166.20;;
13605;SDS011;6874;52.084;5.090;2022-08-19T04:46:28;177.33;;;171.07;;
13605;SDS011;6874;52.084;5.090;2022-08-19T04:48:57;188.83;;;182.23;;
13605;SDS011;6874;52.084;5.090;2022-08-19T04:51:23;178.23;;;172.00;;
13605;SDS011;6874;52.084;5.090;2022-08-19T04:53:48;181.27;;;174.93;;
13605;SDS011;6874;52.084;5.090;2022-08-19T04:56:15;168.57;;;162.57;;
13605;SDS011;6874;52.084;5.090;2022-08-19T04:58:42;171.13;;;165.10;;
13605;SDS011;6874;52.084;5.090;2022-08-19T05:01:11;177.73;;;171.53;;
13605;SDS011;6874;52.084;5.090;2022-08-19T05:03:43;168.10;;;162.17;;
13605;SDS011;6874;52.084;5.090;2022-08-19T05:06:10;180.80;;;174.40;;
13605;SDS011;6874;52.084;5.090;2022-08-19T05:08:38;174.80;;;168.67;;
13605;SDS011;6874;52.084;5.090;2022-08-19T05:11:13;161.37;;;155.67;;
13605;SDS011;6874;52.084;5.090;2022-08-19T05:13:45;165.97;;;160.10;;
13605;SDS011;6874;52.084;5.090;2022-08-19T05:16:13;161.97;;;156.23;;
13605;SDS011;6874;52.084;5.090;2022-08-19T05:18:41;165.60;;;159.67;;
13605;SDS011;6874;52.084;5.090;2022-08-19T05:21:26;162.63;;;156.87;;
13605;SDS011;6874;52.084;5.090;2022-08-19T05:24:11;150.13;;;144.83;;
13605;SDS011;6874;52.084;5.090;2022-08-19T05:26:38;166.93;;;161.07;;
13605;SDS011;6874;52.084;5.090;2022-08-19T05:29:06;187.53;;;180.97;;
13605;SDS011;6874;52.084;5.090;2022-08-19T05:31:32;184.20;;;177.73;;
13605;SDS011;6874;52.084;5.090;2022-08-19T05:33:58;192.77;;;186.03;;
13605;SDS011;6874;52.084;5.090;2022-08-19T05:36:25;202.33;;;195.20;;
13605;SDS011;6874;52.084;5.090;2022-08-19T05:38:51;203.53;;;196.33;;
13605;SDS011;6874;52.084;5.090;2022-08-19T05:41:18;218.10;;;210.27;;
13605;SDS011;6874;52.084;5.090;2022-08-19T05:43:45;237.83;;;229.40;;
13605;SDS011;6874;52.084;5.090;2022-08-19T05:46:16;247.87;;;238.97;;
13605;SDS011;6874;52.084;5.090;2022-08-19T05:48:43;275.77;;;265.63;;
13605;SDS011;6874;52.084;5.090;2022-08-19T05:51:09;291.00;;;280.10;;
13605;SDS011;6874;52.084;5.090;2022-08-19T05:53:35;306.30;;;294.83;;
13605;SDS011;6874;52.084;5.090;2022-08-19T05:56:04;296.17;;;285.07;;
13605;SDS011;6874;52.084;5.090;2022-08-19T05:58:32;299.70;;;288.50;;
13605;SDS011;6874;52.084;5.090;2022-08-19T06:00:58;293.27;;;282.47;;
13605;SDS011;6874;52.084;5.090;2022-08-19T06:03:29;293.20;;;282.37;;
13605;SDS011;6874;52.084;5.090;2022-08-19T06:05:55;301.47;;;290.27;;
13605;SDS011;6874;52.084;5.090;2022-08-19T06:08:21;304.43;;;292.97;;
13605;SDS011;6874;52.084;5.090;2022-08-19T06:10:47;294.47;;;283.37;;
13605;SDS011;6874;52.084;5.090;2022-08-19T06:13:12;305.70;;;294.13;;
13605;SDS011;6874;52.084;5.090;2022-08-19T06:15:38;306.97;;;295.37;;
13605;SDS011;6874;52.084;5.090;2022-08-19T06:18:03;295.83;;;284.67;;
13605;SDS011;6874;52.084;5.090;2022-08-19T06:20:29;289.50;;;278.60;;
13605;SDS011;6874;52.084;5.090;2022-08-19T06:22:55;277.20;;;266.97;;
13605;SDS011;6874;52.084;5.090;2022-08-19T06:25:20;261.53;;;251.77;;
13605;SDS011;6874;52.084;5.090;2022-08-19T06:27:46;251.47;;;242.20;;
13605;SDS011;6874;52.084;5.090;2022-08-19T06:30:11;241.57;;;232.67;;
13605;SDS011;6874;52.084;5.090;2022-08-19T06:32:37;242.10;;;233.17;;
13605;SDS011;6874;52.084;5.090;2022-08-19T06:35:04;251.27;;;241.97;;
13605;SDS011;6874;52.084;5.090;2022-08-19T06:37:30;219.57;;;211.67;;
13605;SDS011;6874;52.084;5.090;2022-08-19T06:39:56;220.43;;;212.50;;
13605;SDS011;6874;52.084;5.090;2022-08-19T06:42:21;220.93;;;212.97;;
13605;SDS011;6874;52.084;5.090;2022-08-19T06:44:47;222.30;;;214.10;;
13605;SDS011;6874;52.084;5.090;2022-08-19T06:47:17;219.87;;;211.73;;
13605;SDS011;6874;52.084;5.090;2022-08-19T06:49:45;213.97;;;206.07;;
13605;SDS011;6874;52.084;5.090;2022-08-19T06:52:10;220.17;;;212.00;;
13605;SDS011;6874;52.084;5.090;2022-08-19T06:54:37;221.10;;;212.93;;
13605;SDS011;6874;52.084;5.090;2022-08-19T06:57:03;207.17;;;199.50;;
13605;SDS011;6874;52.084;5.090;2022-08-19T06:59:29;202.37;;;194.87;;
13605;SDS011;6874;52.084;5.090;2022-08-19T07:01:58;198.47;;;191.03;;
13605;SDS011;6874;52.084;5.090;2022-08-19T07:04:27;200.03;;;192.53;;
13605;SDS011;6874;52.084;5.090;2022-08-19T07:06:58;196.40;;;189.13;;
13605;SDS011;6874;52.084;5.090;2022-08-19T07:09:25;192.23;;;185.03;;
13605;SDS011;6874;52.084;5.090;2022-08-19T07:11:52;193.47;;;186.33;;
13605;SDS011;6874;52.084;5.090;2022-08-19T07:14:20;181.53;;;174.73;;
13605;SDS011;6874;52.084;5.090;2022-08-19T07:16:48;182.50;;;175.73;;
13605;SDS011;6874;52.084;5.090;2022-08-19T07:19:16;169.67;;;163.37;;
13605;SDS011;6874;52.084;5.090;2022-08-19T07:21:43;160.63;;;154.70;;
13605;SDS011;6874;52.084;5.090;2022-08-19T07:24:10;155.43;;;149.67;;
13605;SDS011;6874;52.084;5.090;2022-08-19T07:26:38;147.37;;;141.97;;
13605;SDS011;6874;52.084;5.090;2022-08-19T07:29:06;141.70;;;136.57;;
13605;SDS011;6874;52.084;5.090;2022-08-19T07:31:32;138.97;;;133.87;;
13605;SDS011;6874;52.084;5.090;2022-08-19T07:34:02;135.30;;;130.43;;
13605;SDS011;6874;52.084;5.090;2022-08-19T07:36:32;130.70;;;126.03;;
13605;SDS011;6874;52.084;5.090;2022-08-19T07:38:59;124.63;;;120.17;;
13605;SDS011;6874;52.084;5.090;2022-08-19T07:41:29;130.10;;;125.50;;
13605;SDS011;6874;52.084;5.090;2022-08-19T07:43:56;133.10;;;128.40;;
13605;SDS011;6874;52.084;5.090;2022-08-19T07:46:28;139.83;;;134.87;;
13605;SDS011;6874;52.084;5.090;2022-08-19T07:48:57;143.47;;;138.40;;
13605;SDS011;6874;52.084;5.090;2022-08-19T07:51:23;140.10;;;135.17;;
13605;SDS011;6874;52.084;5.090;2022-08-19T07:53:49;146.67;;;141.47;;
13605;SDS011;6874;52.084;5.090;2022-08-19T07:56:18;153.93;;;148.50;;
13605;SDS011;6874;52.084;5.090;2022-08-19T07:58:46;156.60;;;151.17;;
13605;SDS011;6874;52.084;5.090;2022-08-19T08:01:18;163.13;;;157.50;;
13605;SDS011;6874;52.084;5.090;2022-08-19T08:03:45;169.47;;;163.67;;
13605;SDS011;6874;52.084;5.090;2022-08-19T08:06:30;147.43;;;142.23;;
13605;SDS011;6874;52.084;5.090;2022-08-19T08:09:16;135.97;;;131.27;;
13605;SDS011;6874;52.084;5.090;2022-08-19T08:11:56;147.70;;;142.57;;
13605;SDS011;6874;52.084;5.090;2022-08-19T08:14:25;160.43;;;154.90;;
13605;SDS011;6874;52.084;5.090;2022-08-19T08:16:54;195.13;;;188.47;;
13605;SDS011;6874;52.084;5.090;2022-08-19T08:19:22;229.40;;;221.63;;
13605;SDS011;6874;52.084;5.090;2022-08-19T08:21:49;231.63;;;223.70;;
13605;SDS011;6874;52.084;5.090;2022-08-19T08:24:16;211.33;;;204.17;;
13605;SDS011;6874;52.084;5.090;2022-08-19T08:26:42;221.30;;;213.87;;
13605;SDS011;6874;52.084;5.090;2022-08-19T08:29:09;227.03;;;219.37;;
13605;SDS011;6874;52.084;5.090;2022-08-19T08:31:36;227.50;;;219.80;;
13605;SDS011;6874;52.084;5.090;2022-08-19T08:34:02;229.13;;;221.33;;
13605;SDS011;6874;52.084;5.090;2022-08-19T08:36:28;222.83;;;215.33;;
13605;SDS011;6874;52.084;5.090;2022-08-19T08:38:58;223.90;;;216.27;;
13605;SDS011;6874;52.084;5.090;2022-08-19T08:41:32;230.70;;;222.83;;
13605;SDS011;6874;52.084;5.090;2022-08-19T08:44:18;226.47;;;218.90;;
13605;SDS011;6874;52.084;5.090;2022-08-19T08:46:52;245.97;;;237.77;;
13605;SDS011;6874;52.084;5.090;2022-08-19T08:49:31;246.23;;;238.00;;
13605;SDS011;6874;52.084;5.090;2022-08-19T08:52:10;267.47;;;258.47;;
13605;SDS011;6874;52.084;5.090;2022-08-19T08:55:11;266.27;;;257.33;;
13605;SDS011;6874;52.084;5.090;2022-08-19T08:57:44;287.27;;;277.60;;
13605;SDS011;6874;52.084;5.090;2022-08-19T09:00:30;293.30;;;283.43;;
13605;SDS011;6874;52.084;5.090;2022-08-19T09:02:58;284.60;;;274.90;;
13605;SDS011;6874;52.084;5.090;2022-08-19T09:05:36;287.20;;;277.40;;
13605;SDS011;6874;52.084;5.090;2022-08-19T09:12:10;257.13;;;248.50;;
13605;SDS011;6874;52.084;5.090;2022-08-19T09:14:32;283.70;;;274.00;;
13605;SDS011;6874;52.084;5.090;2022-08-19T09:17:02;320.37;;;309.33;;
13605;SDS011;6874;52.084;5.090;2022-08-19T09:19:32;343.10;;;331.00;;
13605;SDS011;6874;52.084;5.090;2022-08-19T09:21:59;358.90;;;346.33;;
13605;SDS011;6874;52.084;5.090;2022-08-19T09:24:25;374.50;;;361.27;;
13605;SDS011;6874;52.084;5.090;2022-08-19T09:26:51;371.43;;;358.33;;
13605;SDS011;6874;52.084;5.090;2022-08-19T09:29:16;381.93;;;368.53;;
13605;SDS011;6874;52.084;5.090;2022-08-19T09:31:42;403.57;;;389.40;;
13605;SDS011;6874;52.084;5.090;2022-08-19T09:34:07;392.30;;;378.47;;
13605;SDS011;6874;52.084;5.090;2022-08-19T09:36:33;399.67;;;385.50;;
13605;SDS011;6874;52.084;5.090;2022-08-19T09:39:02;406.50;;;392.10;;
13605;SDS011;6874;52.084;5.090;2022-08-19T09:41:28;403.17;;;388.90;;
13605;SDS011;6874;52.084;5.090;2022-08-19T09:43:54;407.00;;;392.50;;
13605;SDS011;6874;52.084;5.090;2022-08-19T09:46:22;420.80;;;406.00;;
13605;SDS011;6874;52.084;5.090;2022-08-19T09:48:49;415.27;;;400.67;;
13605;SDS011;6874;52.084;5.090;2022-08-19T09:51:17;411.10;;;396.40;;
13605;SDS011;6874;52.084;5.090;2022-08-19T09:53:46;431.90;;;416.47;;
13605;SDS011;6874;52.084;5.090;2022-08-19T09:56:15;431.57;;;415.97;;
13605;SDS011;6874;52.084;5.090;2022-08-19T09:58:42;437.00;;;421.33;;
13605;SDS011;6874;52.084;5.090;2022-08-19T10:01:07;420.83;;;405.60;;
13605;SDS011;6874;52.084;5.090;2022-08-19T10:03:34;407.63;;;392.73;;
13605;SDS011;6874;52.084;5.090;2022-08-19T10:06:02;419.43;;;404.47;;
13605;SDS011;6874;52.084;5.090;2022-08-19T10:08:30;427.30;;;411.87;;
13605;SDS011;6874;52.084;5.090;2022-08-19T10:11:01;420.20;;;405.30;;
13605;SDS011;6874;52.084;5.090;2022-08-19T10:13:29;421.37;;;406.57;;
13605;SDS011;6874;52.084;5.090;2022-08-19T10:16:07;423.97;;;409.27;;
13605;SDS011;6874;52.084;5.090;2022-08-19T10:18:34;411.63;;;397.27;;
13605;SDS011;6874;52.084;5.090;2022-08-19T10:21:06;441.27;;;425.67;;
13605;SDS011;6874;52.084;5.090;2022-08-19T10:23:37;429.77;;;414.43;;
13605;SDS011;6874;52.084;5.090;2022-08-19T10:26:05;447.63;;;431.53;;
13605;SDS011;6874;52.084;5.090;2022-08-19T10:28:35;427.93;;;412.47;;
13605;SDS011;6874;52.084;5.090;2022-08-19T10:31:05;424.13;;;408.60;;
13605;SDS011;6874;52.084;5.090;2022-08-19T10:33:39;445.07;;;428.37;;
13605;SDS011;6874;52.084;5.090;2022-08-19T10:36:07;435.17;;;418.53;;
13605;SDS011;6874;52.084;5.090;2022-08-19T10:38:36;416.63;;;400.93;;
13605;SDS011;6874;52.084;5.090;2022-08-19T10:41:09;408.07;;;392.53;;
13605;SDS011;6874;52.084;5.090;2022-08-19T10:43:38;391.30;;;376.43;;
13605;SDS011;6874;52.084;5.090;2022-08-19T10:46:08;397.20;;;382.07;;
13605;SDS011;6874;52.084;5.090;2022-08-19T10:48:36;400.87;;;385.47;;
13605;SDS011;6874;52.084;5.090;2022-08-19T10:51:02;408.30;;;392.37;;
13605;SDS011;6874;52.084;5.090;2022-08-19T10:53:47;393.73;;;378.30;;
13605;SDS011;6874;52.084;5.090;2022-08-19T10:56:13;410.70;;;394.40;;
13605;SDS011;6874;52.084;5.090;2022-08-19T10:58:59;430.77;;;412.77;;
13605;SDS011;6874;52.084;5.090;2022-08-19T11:01:25;498.77;;;476.90;;
13605;SDS011;6874;52.084;5.090;2022-08-19T11:03:51;555.23;;;529.80;;
13605;SDS011;6874;52.084;5.090;2022-08-19T11:06:17;587.67;;;559.40;;
13605;SDS011;6874;52.084;5.090;2022-08-19T11:08:45;617.90;;;586.60;;
13605;SDS011;6874;52.084;5.090;2022-08-19T11:11:11;666.43;;;631.63;;
13605;SDS011;6874;52.084;5.090;2022-08-19T11:13:39;663.67;;;628.60;;
13605;SDS011;6874;52.084;5.090;2022-08-19T11:16:07;693.33;;;656.17;;
13605;SDS011;6874;52.084;5.090;2022-08-19T11:18:41;692.23;;;654.77;;
13605;SDS011;6874;52.084;5.090;2022-08-19T11:21:13;658.73;;;625.10;;
13605;SDS011;6874;52.084;5.090;2022-08-19T11:23:45;651.03;;;618.70;;
13605;SDS011;6874;52.084;5.090;2022-08-19T11:26:13;649.20;;;617.17;;
13605;SDS011;6874;52.084;5.090;2022-08-19T11:28:39;652.77;;;620.97;;
13605;SDS011;6874;52.084;5.090;2022-08-19T11:31:10;653.83;;;622.23;;
13605;SDS011;6874;52.084;5.090;2022-08-19T11:33:40;573.53;;;547.67;;
13605;SDS011;6874;52.084;5.090;2022-08-19T11:36:06;649.67;;;618.37;;
13605;SDS011;6874;52.084;5.090;2022-08-19T11:38:32;659.33;;;627.37;;
13605;SDS011;6874;52.084;5.090;2022-08-19T11:41:01;666.87;;;634.47;;
13605;SDS011;6874;52.084;5.090;2022-08-19T11:43:29;663.57;;;631.40;;
13605;SDS011;6874;52.084;5.090;2022-08-19T11:45:56;660.37;;;628.57;;
13605;SDS011;6874;52.084;5.090;2022-08-19T11:48:23;665.17;;;632.60;;
13605;SDS011;6874;52.084;5.090;2022-08-19T11:50:49;677.20;;;644.20;;
13605;SDS011;6874;52.084;5.090;2022-08-19T11:53:17;663.17;;;631.03;;
13605;SDS011;6874;52.084;5.090;2022-08-19T11:55:45;673.03;;;640.50;;
13605;SDS011;6874;52.084;5.090;2022-08-19T11:58:12;604.30;;;576.93;;
13605;SDS011;6874;52.084;5.090;2022-08-19T12:00:39;669.50;;;637.13;;
13605;SDS011;6874;52.084;5.090;2022-08-19T12:03:05;670.20;;;637.77;;
13605;SDS011;6874;52.084;5.090;2022-08-19T12:05:31;694.63;;;660.97;;
13605;SDS011;6874;52.084;5.090;2022-08-19T12:07:56;695.13;;;660.93;;
13605;SDS011;6874;52.084;5.090;2022-08-19T12:10:22;615.40;;;587.70;;
13605;SDS011;6874;52.084;5.090;2022-08-19T12:12:48;591.90;;;565.67;;
13605;SDS011;6874;52.084;5.090;2022-08-19T12:15:13;586.60;;;560.90;;
13605;SDS011;6874;52.084;5.090;2022-08-19T12:17:40;587.23;;;561.33;;
13605;SDS011;6874;52.084;5.090;2022-08-19T12:20:06;589.17;;;563.53;;
13605;SDS011;6874;52.084;5.090;2022-08-19T12:22:34;593.50;;;567.30;;
13605;SDS011;6874;52.084;5.090;2022-08-19T12:25:02;599.00;;;572.50;;
13605;SDS011;6874;52.084;5.090;2022-08-19T12:27:29;606.47;;;579.87;;
13605;SDS011;6874;52.084;5.090;2022-08-19T12:29:54;591.37;;;565.87;;
13605;SDS011;6874;52.084;5.090;2022-08-19T12:32:20;577.53;;;552.87;;
13605;SDS011;6874;52.084;5.090;2022-08-19T12:34:46;564.17;;;540.13;;
13605;SDS011;6874;52.084;5.090;2022-08-19T12:37:12;563.07;;;539.53;;
13605;SDS011;6874;52.084;5.090;2022-08-19T12:39:39;564.83;;;541.13;;
13605;SDS011;6874;52.084;5.090;2022-08-19T12:42:06;558.97;;;535.70;;
13605;SDS011;6874;52.084;5.090;2022-08-19T12:44:33;546.33;;;523.80;;
13605;SDS011;6874;52.084;5.090;2022-08-19T12:46:59;529.23;;;508.17;;
13605;SDS011;6874;52.084;5.090;2022-08-19T12:49:26;502.87;;;483.23;;
13605;SDS011;6874;52.084;5.090;2022-08-19T12:51:53;475.77;;;457.70;;
13605;SDS011;6874;52.084;5.090;2022-08-19T12:54:18;456.83;;;439.67;;
13605;SDS011;6874;52.084;5.090;2022-08-19T12:56:44;432.30;;;416.30;;
13605;SDS011;6874;52.084;5.090;2022-08-19T12:59:10;409.57;;;394.67;;
13605;SDS011;6874;52.084;5.090;2022-08-19T13:01:36;400.53;;;386.00;;
13605;SDS011;6874;52.084;5.090;2022-08-19T13:04:03;406.30;;;391.67;;
13605;SDS011;6874;52.084;5.090;2022-08-19T13:06:29;415.77;;;400.73;;
13605;SDS011;6874;52.084;5.090;2022-08-19T13:08:54;425.50;;;409.93;;
13605;SDS011;6874;52.084;5.090;2022-08-19T13:11:20;430.50;;;414.70;;
13605;SDS011;6874;52.084;5.090;2022-08-19T13:13:49;429.43;;;413.60;;
13605;SDS011;6874;52.084;5.090;2022-08-19T13:16:16;424.97;;;409.23;;
13605;SDS011;6874;52.084;5.090;2022-08-19T13:18:42;412.40;;;396.90;;
13605;SDS011;6874;52.084;5.090;2022-08-19T13:21:10;401.47;;;386.27;;
13605;SDS011;6874;52.084;5.090;2022-08-19T13:23:39;393.33;;;378.33;;
13605;SDS011;6874;52.084;5.090;2022-08-19T13:26:06;392.90;;;377.97;;
13605;SDS011;6874;52.084;5.090;2022-08-19T13:28:33;397.80;;;382.43;;
13605;SDS011;6874;52.084;5.090;2022-08-19T13:31:19;399.70;;;384.20;;
13605;SDS011;6874;52.084;5.090;2022-08-19T13:34:05;372.10;;;358.23;;
13605;SDS011;6874;52.084;5.090;2022-08-19T13:36:32;367.93;;;354.43;;
13605;SDS011;6874;52.084;5.090;2022-08-19T13:38:58;366.60;;;353.30;;
13605;SDS011;6874;52.084;5.090;2022-08-19T13:41:24;372.40;;;359.27;;
13605;SDS011;6874;52.084;5.090;2022-08-19T13:43:51;382.77;;;369.13;;
13605;SDS011;6874;52.084;5.090;2022-08-19T13:46:17;410.20;;;395.23;;
13605;SDS011;6874;52.084;5.090;2022-08-19T13:48:44;418.03;;;402.80;;
13605;SDS011;6874;52.084;5.090;2022-08-19T13:51:10;437.90;;;421.80;;
13605;SDS011;6874;52.084;5.090;2022-08-19T13:53:36;450.83;;;434.10;;
13605;SDS011;6874;52.084;5.090;2022-08-19T13:56:06;448.57;;;431.87;;
13605;SDS011;6874;52.084;5.090;2022-08-19T13:58:34;494.43;;;475.57;;
13605;SDS011;6874;52.084;5.090;2022-08-19T14:00:59;507.07;;;487.27;;
13605;SDS011;6874;52.084;5.090;2022-08-19T14:03:25;531.43;;;510.17;;
13605;SDS011;6874;52.084;5.090;2022-08-19T14:05:52;548.90;;;526.47;;
13605;SDS011;6874;52.084;5.090;2022-08-19T14:08:17;574.00;;;550.37;;
13605;SDS011;6874;52.084;5.090;2022-08-19T14:10:44;557.53;;;534.63;;
13605;SDS011;6874;52.084;5.090;2022-08-19T14:13:10;565.23;;;541.97;;
13605;SDS011;6874;52.084;5.090;2022-08-19T14:15:39;571.57;;;548.10;;
13605;SDS011;6874;52.084;5.090;2022-08-19T14:18:05;573.20;;;549.83;;